createdAt,value
2019-04-30T00:00:55.385Z,14.00
2019-04-30T00:03:40.935Z,14.00
2019-04-30T00:06:09.444Z,14.00
2019-04-30T00:08:39.061Z,14.00
2019-04-30T00:11:10.914Z,14.00
2019-04-30T00:13:37.927Z,13.90
2019-04-30T00:16:06.391Z,13.90
2019-04-30T00:18:38.242Z,13.90
2019-04-30T00:21:05.437Z,13.90
2019-04-30T00:23:35.837Z,13.90
2019-04-30T00:26:08.690Z,13.90
2019-04-30T00:28:35.395Z,13.90
2019-04-30T00:31:05.517Z,13.90
2019-04-30T00:33:35.379Z,13.80
2019-04-30T00:36:05.021Z,13.80
2019-04-30T00:38:37.734Z,13.80
2019-04-30T00:41:06.839Z,13.70
2019-04-30T00:43:35.378Z,13.60
2019-04-30T00:46:05.125Z,13.60
2019-04-30T00:48:35.554Z,13.60
2019-04-30T00:51:07.590Z,13.60
2019-04-30T00:53:35.789Z,13.60
2019-04-30T00:56:26.920Z,13.50
2019-04-30T00:58:57.446Z,13.50
2019-04-30T01:01:25.727Z,13.40
2019-04-30T01:04:10.523Z,13.40
2019-04-30T01:06:39.331Z,13.30
2019-04-30T01:09:08.685Z,13.30
2019-04-30T01:11:39.866Z,13.20
2019-04-30T01:14:07.607Z,13.30
2019-04-30T01:16:36.052Z,13.30
2019-04-30T01:19:05.779Z,13.30
2019-04-30T01:21:34.992Z,13.30
2019-04-30T01:24:03.505Z,13.40
2019-04-30T01:26:32.201Z,13.40
2019-04-30T01:31:58.597Z,13.50
2019-04-30T01:34:27.196Z,13.40
2019-04-30T01:36:55.628Z,13.40
2019-04-30T01:39:28.482Z,13.30
2019-04-30T01:41:54.209Z,13.30
2019-04-30T01:44:22.649Z,13.30
2019-04-30T01:46:51.777Z,13.20
2019-04-30T01:49:25.701Z,13.20
2019-04-30T01:51:52.890Z,13.30
2019-04-30T01:54:24.053Z,13.30
2019-04-30T01:57:10.721Z,13.30
2019-04-30T01:59:58.295Z,13.30
2019-04-30T02:02:28.656Z,13.30
2019-04-30T02:04:59.039Z,13.30
2019-04-30T02:07:28.775Z,13.30
2019-04-30T02:09:58.763Z,13.30
2019-04-30T02:12:29.527Z,13.30
2019-04-30T02:14:59.496Z,13.20
2019-04-30T02:17:29.289Z,13.20
2019-04-30T02:19:59.374Z,13.20
2019-04-30T02:22:30.897Z,13.20
2019-04-30T02:24:58.634Z,13.10
2019-04-30T02:27:29.413Z,13.10
2019-04-30T02:30:02.025Z,13.10
2019-04-30T02:32:30.385Z,13.10
2019-04-30T02:35:02.318Z,13.10
2019-04-30T02:37:32.384Z,13.00
2019-04-30T02:40:01.098Z,13.00
2019-04-30T02:42:30.954Z,13.00
2019-04-30T02:45:03.853Z,13.00
2019-04-30T02:47:35.277Z,12.90
2019-04-30T02:50:15.647Z,12.90
2019-04-30T02:52:40.193Z,12.90
2019-04-30T02:55:11.557Z,13.00
2019-04-30T02:57:40.206Z,13.00
2019-04-30T03:00:10.701Z,12.90
2019-04-30T03:02:39.561Z,12.90
2019-04-30T03:05:12.943Z,12.90
2019-04-30T03:07:40.915Z,12.90
2019-04-30T03:10:10.307Z,12.90
2019-04-30T03:12:40.516Z,12.90
2019-04-30T03:15:10.010Z,12.90
2019-04-30T03:17:46.227Z,12.90
2019-04-30T03:20:32.646Z,12.80
2019-04-30T03:22:55.378Z,12.70
2019-04-30T03:25:24.379Z,12.70
2019-04-30T03:27:52.823Z,12.60
2019-04-30T03:30:22.191Z,12.70
2019-04-30T03:32:56.624Z,12.70
2019-04-30T03:35:22.834Z,12.70
2019-04-30T03:37:51.164Z,12.70
2019-04-30T03:40:20.211Z,12.70
2019-04-30T03:42:49.418Z,12.70
2019-04-30T03:45:20.448Z,12.70
2019-04-30T03:47:50.460Z,12.80
2019-04-30T03:50:19.836Z,12.80
2019-04-30T03:52:50.399Z,12.80
2019-04-30T03:55:20.901Z,12.80
2019-04-30T03:57:51.688Z,12.80
2019-04-30T04:00:20.887Z,12.80
2019-04-30T04:02:50.145Z,12.70
2019-04-30T04:05:26.305Z,12.60
2019-04-30T04:07:59.845Z,12.70
2019-04-30T04:10:33.200Z,12.70
2019-04-30T04:13:01.697Z,12.70
2019-04-30T04:15:30.123Z,12.60
2019-04-30T04:18:00.361Z,12.60
2019-04-30T04:20:29.877Z,12.60
2019-04-30T04:22:59.877Z,12.60
2019-04-30T04:25:29.951Z,12.60
2019-04-30T04:28:00.450Z,12.50
2019-04-30T04:30:29.710Z,12.50
2019-04-30T04:32:59.950Z,12.60
2019-04-30T04:35:29.907Z,12.60
2019-04-30T04:38:00.355Z,12.60
2019-04-30T04:40:30.249Z,12.60
2019-04-30T04:43:00.285Z,12.50
2019-04-30T04:45:30.525Z,12.60
2019-04-30T04:48:00.230Z,12.70
2019-04-30T04:50:30.194Z,12.70
2019-04-30T04:52:59.545Z,12.70
2019-04-30T04:55:29.894Z,12.70
2019-04-30T04:57:59.842Z,12.80
2019-04-30T05:00:29.395Z,12.80
2019-04-30T05:03:05.721Z,12.80
2019-04-30T05:05:53.750Z,12.80
2019-04-30T05:08:22.165Z,12.80
2019-04-30T05:10:50.605Z,12.80
2019-04-30T05:13:19.292Z,12.80
2019-04-30T05:15:51.226Z,12.80
2019-04-30T05:18:19.138Z,12.70
2019-04-30T05:20:49.070Z,12.70
2019-04-30T05:23:19.542Z,12.70
2019-04-30T05:25:49.104Z,12.70
2019-04-30T05:28:18.948Z,12.80
2019-04-30T05:30:49.404Z,12.70
2019-04-30T05:33:18.628Z,12.70
2019-04-30T05:35:47.257Z,12.70
2019-04-30T05:38:15.697Z,12.80
2019-04-30T05:40:44.117Z,12.90
2019-04-30T05:43:31.898Z,12.90
2019-04-30T05:46:00.316Z,13.00
2019-04-30T05:48:28.828Z,13.00
2019-04-30T05:50:59.110Z,13.00
2019-04-30T05:53:28.701Z,13.00
2019-04-30T05:55:59.177Z,12.90
2019-04-30T05:58:29.780Z,12.90
2019-04-30T06:00:59.627Z,12.90
2019-04-30T06:03:32.901Z,13.00
2019-04-30T06:05:58.929Z,13.10
2019-04-30T06:08:29.308Z,13.10
2019-04-30T06:11:11.346Z,13.10
2019-04-30T06:13:56.470Z,13.20
2019-04-30T06:16:26.528Z,13.30
2019-04-30T06:18:54.955Z,13.30
2019-04-30T06:21:23.414Z,13.30
2019-04-30T06:23:51.916Z,13.20
2019-04-30T06:26:20.833Z,13.30
2019-04-30T06:28:49.730Z,13.40
2019-04-30T06:31:22.282Z,13.40
2019-04-30T06:33:48.795Z,13.50
2019-04-30T06:36:19.064Z,13.50
2019-04-30T06:38:48.888Z,13.50
2019-04-30T06:41:19.692Z,13.50
2019-04-30T06:43:48.837Z,13.50
2019-04-30T06:46:18.732Z,13.50
2019-04-30T06:48:50.835Z,13.50
2019-04-30T06:51:18.939Z,13.60
2019-04-30T06:53:49.568Z,13.60
2019-04-30T06:56:18.957Z,13.60
2019-04-30T06:58:49.358Z,13.70
2019-04-30T07:01:19.104Z,13.70
2019-04-30T07:03:48.757Z,13.80
2019-04-30T07:06:27.540Z,13.90
2019-04-30T07:08:59.638Z,14.00
2019-04-30T07:11:32.578Z,14.00
2019-04-30T07:14:01.012Z,14.00
2019-04-30T07:16:29.955Z,14.00
2019-04-30T07:18:58.723Z,14.00
2019-04-30T07:21:31.353Z,14.10
2019-04-30T07:23:59.553Z,14.10
2019-04-30T07:26:28.960Z,14.10
2019-04-30T07:29:01.912Z,14.20
2019-04-30T07:31:29.581Z,14.20
2019-04-30T07:33:59.491Z,14.30
2019-04-30T07:36:43.435Z,14.30
2019-04-30T07:38:59.864Z,14.20
2019-04-30T07:41:30.877Z,14.20
2019-04-30T07:43:59.319Z,14.20
2019-04-30T07:46:29.795Z,14.20
2019-04-30T07:49:00.036Z,14.20
2019-04-30T07:51:32.173Z,14.20
2019-04-30T07:53:59.024Z,14.30
2019-04-30T07:56:31.680Z,14.40
2019-04-30T07:59:00.764Z,14.40
2019-04-30T08:01:29.499Z,14.50
2019-04-30T08:04:05.565Z,14.50
2019-04-30T08:06:34.142Z,14.50
2019-04-30T08:09:02.809Z,14.60
2019-04-30T08:11:34.526Z,14.60
2019-04-30T08:14:01.858Z,14.60
2019-04-30T08:16:31.077Z,14.70
2019-04-30T08:18:59.513Z,14.60
2019-04-30T08:21:28.759Z,14.40
2019-04-30T08:23:59.330Z,14.40
2019-04-30T08:26:28.644Z,14.50
2019-04-30T08:28:57.314Z,14.60
2019-04-30T08:31:25.726Z,14.70
2019-04-30T08:33:54.317Z,14.80
2019-04-30T08:36:22.753Z,14.80
2019-04-30T08:38:51.198Z,14.90
2019-04-30T08:41:19.638Z,14.90
2019-04-30T08:43:49.670Z,14.90
2019-04-30T08:46:19.027Z,15.10
2019-04-30T08:48:51.560Z,15.30
2019-04-30T08:51:19.118Z,15.40
2019-04-30T08:53:48.667Z,15.50
2019-04-30T08:56:21.718Z,15.60
2019-04-30T08:58:49.075Z,15.70
2019-04-30T09:01:19.603Z,15.70
2019-04-30T09:03:50.938Z,15.70
2019-04-30T09:06:19.802Z,15.70
2019-04-30T09:08:49.104Z,16.00
2019-04-30T09:11:25.047Z,16.30
2019-04-30T09:13:48.794Z,16.40
2019-04-30T09:16:19.369Z,16.50
2019-04-30T09:18:49.436Z,16.40
2019-04-30T09:21:18.687Z,16.20
2019-04-30T09:23:51.957Z,16.10
2019-04-30T09:26:18.737Z,16.10
2019-04-30T09:28:49.255Z,16.00
2019-04-30T09:31:17.391Z,16.00
2019-04-30T09:33:45.823Z,15.90
2019-04-30T09:36:14.247Z,15.90
2019-04-30T09:38:42.683Z,15.90
2019-04-30T09:41:11.115Z,15.90
2019-04-30T09:43:40.505Z,16.00
2019-04-30T09:46:17.895Z,16.00
2019-04-30T09:48:39.304Z,16.10
2019-04-30T09:51:10.391Z,16.20
2019-04-30T09:53:39.418Z,16.30
2019-04-30T09:56:09.574Z,16.30
2019-04-30T09:58:39.335Z,16.30
2019-04-30T10:01:09.424Z,16.30
2019-04-30T10:03:39.144Z,16.30
2019-04-30T10:06:12.488Z,16.30
2019-04-30T10:08:48.425Z,16.30
2019-04-30T10:11:12.812Z,16.20
2019-04-30T10:13:41.231Z,16.10
2019-04-30T10:16:23.452Z,15.90
2019-04-30T10:18:51.876Z,15.90
2019-04-30T10:21:32.253Z,15.90
2019-04-30T10:24:12.289Z,16.10
2019-04-30T10:26:30.848Z,16.10
2019-04-30T10:29:00.575Z,16.10
2019-04-30T10:31:29.393Z,16.10
2019-04-30T10:33:58.631Z,16.00
2019-04-30T10:36:29.421Z,15.90
2019-04-30T10:38:59.368Z,15.90
2019-04-30T10:41:28.762Z,15.80
2019-04-30T10:43:59.126Z,15.70
2019-04-30T10:46:27.809Z,15.60
2019-04-30T10:48:56.577Z,15.60
2019-04-30T10:51:25.065Z,15.60
2019-04-30T10:53:53.506Z,15.60
2019-04-30T10:56:22.226Z,15.60
2019-04-30T10:58:50.661Z,15.70
2019-04-30T11:01:19.318Z,15.70
2019-04-30T11:03:48.066Z,15.80
2019-04-30T11:06:16.489Z,15.80
2019-04-30T11:08:44.943Z,15.90
2019-04-30T11:11:13.349Z,16.00
2019-04-30T11:13:41.786Z,16.10
2019-04-30T11:16:14.719Z,16.20
2019-04-30T11:18:40.788Z,16.20
2019-04-30T11:21:10.006Z,16.30
2019-04-30T11:23:39.609Z,16.30
2019-04-30T11:26:08.907Z,16.10
2019-04-30T11:28:37.936Z,16.10
2019-04-30T11:31:26.938Z,16.10
2019-04-30T11:34:00.202Z,16.10
2019-04-30T11:36:29.177Z,16.10
2019-04-30T11:38:58.665Z,16.10
2019-04-30T11:41:30.870Z,16.10
2019-04-30T11:43:59.332Z,16.20
2019-04-30T11:46:38.374Z,16.10
2019-04-30T11:49:06.714Z,16.10
2019-04-30T11:51:35.135Z,16.10
2019-04-30T11:54:04.015Z,16.20
2019-04-30T11:56:32.494Z,16.20
2019-04-30T11:59:00.927Z,16.10
2019-04-30T12:01:31.274Z,16.10
2019-04-30T12:03:59.966Z,16.10
2019-04-30T12:06:28.587Z,16.30
2019-04-30T12:09:01.828Z,16.60
2019-04-30T12:11:37.896Z,16.90
2019-04-30T12:14:06.571Z,17.10
2019-04-30T12:16:35.016Z,17.20
2019-04-30T12:19:03.527Z,17.30
2019-04-30T12:21:31.963Z,17.30
2019-04-30T12:24:00.383Z,17.30
2019-04-30T12:26:28.985Z,17.40
2019-04-30T12:28:57.539Z,17.40
2019-04-30T12:31:25.975Z,17.50
2019-04-30T12:33:54.396Z,17.50
2019-04-30T12:36:22.832Z,17.50
2019-04-30T12:38:51.267Z,17.60
2019-04-30T12:41:20.640Z,17.80
2019-04-30T12:43:49.064Z,18.00
2019-04-30T12:46:19.038Z,18.40
2019-04-30T12:48:55.483Z,18.80
2019-04-30T12:51:28.636Z,18.90
2019-04-30T12:54:15.144Z,18.90
2019-04-30T12:56:57.375Z,18.90
2019-04-30T12:59:25.816Z,18.70
2019-04-30T13:01:54.254Z,18.60
2019-04-30T13:04:22.673Z,18.60
2019-04-30T13:06:51.744Z,18.60
2019-04-30T13:09:21.440Z,18.80
2019-04-30T13:11:50.923Z,19.20
2019-04-30T13:14:20.801Z,19.40
2019-04-30T13:16:49.700Z,19.60
2019-04-30T13:19:18.146Z,19.90
2019-04-30T13:21:46.571Z,20.20
2019-04-30T13:24:15.238Z,20.30
2019-04-30T13:26:43.799Z,20.20
2019-04-30T13:29:13.881Z,20.10
2019-04-30T13:31:42.313Z,20.00
2019-04-30T13:37:21.142Z,21.00
2019-04-30T13:39:57.233Z,20.90
2019-04-30T13:42:33.425Z,20.90
2019-04-30T13:45:01.865Z,20.80
2019-04-30T13:47:30.299Z,20.60
2019-04-30T13:49:59.394Z,20.50
2019-04-30T13:52:28.871Z,20.30
2019-04-30T13:54:58.198Z,20.10
2019-04-30T13:57:26.626Z,20.10
2019-04-30T13:59:55.075Z,21.80
2019-04-30T14:02:23.493Z,24.40
2019-04-30T14:04:56.333Z,24.50
2019-04-30T14:07:42.945Z,23.80
2019-04-30T14:10:12.079Z,23.30
2019-04-30T14:12:42.146Z,24.90
2019-04-30T14:15:11.326Z,27.10
2019-04-30T14:17:40.183Z,27.10
2019-04-30T14:20:09.294Z,26.40
2019-04-30T14:22:37.734Z,26.40
2019-04-30T14:25:07.485Z,26.40
2019-04-30T14:27:39.595Z,25.90
2019-04-30T14:30:09.192Z,26.40
2019-04-30T14:32:56.890Z,29.50
2019-04-30T14:35:25.310Z,32.90
2019-04-30T14:37:53.757Z,36.00
2019-04-30T14:40:22.721Z,37.50
2019-04-30T14:43:00.049Z,35.80
2019-04-30T14:45:47.610Z,33.00
2019-04-30T14:48:20.724Z,33.80
2019-04-30T14:51:00.661Z,35.90
2019-04-30T14:53:42.907Z,37.60
2019-04-30T14:56:19.671Z,38.20
2019-04-30T14:58:52.935Z,36.40
2019-04-30T15:01:37.763Z,33.80
2019-04-30T15:04:06.261Z,32.90
2019-04-30T15:06:34.695Z,33.70
2019-04-30T15:09:05.340Z,35.40
2019-04-30T15:11:34.219Z,37.20
2019-04-30T15:14:02.707Z,38.30
2019-04-30T15:16:31.147Z,38.90
2019-04-30T15:18:59.591Z,39.00
2019-04-30T15:21:28.052Z,40.20
2019-04-30T15:24:03.753Z,41.20
2019-04-30T15:26:32.167Z,40.50
2019-04-30T15:29:00.612Z,40.50
2019-04-30T15:31:29.648Z,39.20
2019-04-30T15:34:02.846Z,36.70
2019-04-30T15:36:30.252Z,36.80
2019-04-30T15:39:00.396Z,38.00
2019-04-30T15:41:29.304Z,39.50
2019-04-30T15:43:57.744Z,40.10
2019-04-30T15:46:26.183Z,39.20
2019-04-30T15:48:54.624Z,39.10
2019-04-30T15:51:23.472Z,39.70
2019-04-30T15:53:51.918Z,40.20
2019-04-30T15:56:20.341Z,39.30
2019-04-30T15:59:08.886Z,37.10
2019-04-30T16:01:37.788Z,35.30
2019-04-30T16:04:10.102Z,33.50
2019-04-30T16:06:38.539Z,32.00
2019-04-30T16:09:10.545Z,30.70
2019-04-30T16:11:43.897Z,29.80
2019-04-30T16:14:14.045Z,28.60
2019-04-30T16:16:44.130Z,27.80
2019-04-30T16:19:31.889Z,27.10
2019-04-30T16:22:00.329Z,26.30
2019-04-30T16:24:28.875Z,25.70
2019-04-30T16:26:59.162Z,25.60
2019-04-30T16:29:27.505Z,25.50
2019-04-30T16:31:55.934Z,25.00
2019-04-30T16:34:24.393Z,24.60
2019-04-30T16:36:52.886Z,24.20
2019-04-30T16:39:21.317Z,23.70
2019-04-30T16:41:49.879Z,23.20
2019-04-30T16:44:37.989Z,23.10
2019-04-30T16:47:13.414Z,23.00
2019-04-30T16:49:36.570Z,23.10
2019-04-30T16:52:05.006Z,23.20
2019-04-30T16:54:33.430Z,23.50
2019-04-30T16:57:06.489Z,23.50
2019-04-30T16:59:38.792Z,23.40
2019-04-30T17:02:09.214Z,23.50
2019-04-30T17:04:53.882Z,23.30
2019-04-30T17:07:33.214Z,23.40
2019-04-30T17:10:12.355Z,23.90
2019-04-30T17:13:00.768Z,24.00
2019-04-30T17:15:33.626Z,23.40
2019-04-30T17:18:03.059Z,22.80
2019-04-30T17:20:31.647Z,22.30
2019-04-30T17:23:00.079Z,22.00
2019-04-30T17:25:28.863Z,21.80
2019-04-30T17:28:01.153Z,21.60
2019-04-30T17:30:29.234Z,21.40
2019-04-30T17:32:59.578Z,21.60
2019-04-30T17:35:28.855Z,22.40
2019-04-30T17:37:57.531Z,22.60
2019-04-30T17:40:33.507Z,22.10
2019-04-30T17:43:01.939Z,21.60
2019-04-30T17:45:30.395Z,21.10
2019-04-30T17:47:58.823Z,20.80
2019-04-30T17:50:27.311Z,20.50
2019-04-30T17:52:55.787Z,20.10
2019-04-30T17:55:24.203Z,19.90
2019-04-30T17:57:54.983Z,19.80
2019-04-30T18:00:23.496Z,19.60
2019-04-30T18:02:52.017Z,19.40
2019-04-30T18:05:20.565Z,19.20
2019-04-30T18:07:49.755Z,18.90
2019-04-30T18:10:20.493Z,18.70
2019-04-30T18:12:48.910Z,18.50
2019-04-30T18:15:21.909Z,18.40
2019-04-30T18:17:54.706Z,18.40
2019-04-30T18:20:24.829Z,18.30
2019-04-30T18:22:54.974Z,18.20
2019-04-30T18:25:47.165Z,18.00
2019-04-30T18:28:15.586Z,17.90
2019-04-30T18:30:44.118Z,17.70
2019-04-30T18:33:12.550Z,17.70
2019-04-30T18:35:41.034Z,17.50
2019-04-30T18:38:30.693Z,17.40
2019-04-30T18:41:11.838Z,17.30
2019-04-30T18:43:40.639Z,17.20
2019-04-30T18:46:10.817Z,17.10
2019-04-30T18:48:39.563Z,17.00
2019-04-30T18:51:23.460Z,16.90
2019-04-30T18:53:39.744Z,16.80
2019-04-30T18:56:13.943Z,16.80
2019-04-30T18:58:42.281Z,16.70
2019-04-30T19:01:09.402Z,16.50
2019-04-30T19:03:39.125Z,16.40
2019-04-30T19:06:22.269Z,16.40
2019-04-30T19:08:41.180Z,16.30
2019-04-30T19:11:11.247Z,16.20
2019-04-30T19:13:41.332Z,16.10
2019-04-30T19:16:21.820Z,16.00
2019-04-30T19:18:43.259Z,16.00
2019-04-30T19:21:11.968Z,15.90
2019-04-30T19:23:40.591Z,15.80
2019-04-30T19:26:09.031Z,15.70
2019-04-30T19:28:38.693Z,15.60
2019-04-30T19:31:11.322Z,15.50
2019-04-30T19:33:38.945Z,15.40
2019-04-30T19:36:09.650Z,15.40
2019-04-30T19:38:37.702Z,15.20
2019-04-30T19:41:06.125Z,15.20
2019-04-30T19:43:34.565Z,15.10
2019-04-30T19:46:02.994Z,15.10
2019-04-30T19:48:31.447Z,15.10
2019-04-30T19:50:59.880Z,15.10
2019-04-30T19:53:30.226Z,15.00
2019-04-30T19:55:58.544Z,14.90
2019-04-30T19:58:45.734Z,14.90
2019-04-30T20:00:57.125Z,14.80
2019-04-30T20:03:25.568Z,14.70
2019-04-30T20:05:54.194Z,14.70
2019-04-30T20:08:23.041Z,14.50
2019-04-30T20:10:51.505Z,14.50
2019-04-30T20:13:32.950Z,14.40
2019-04-30T20:15:50.093Z,14.30
2019-04-30T20:18:19.025Z,14.30
2019-04-30T20:20:51.780Z,14.20
2019-04-30T20:23:19.525Z,14.20
2019-04-30T20:25:47.944Z,14.10
2019-04-30T20:28:16.381Z,14.10
2019-04-30T20:31:04.225Z,14.00
2019-04-30T20:33:32.661Z,13.90
2019-04-30T20:36:01.081Z,13.90
2019-04-30T20:38:39.821Z,13.80
2019-04-30T20:41:09.909Z,13.80
2019-04-30T20:43:39.503Z,13.70
2019-04-30T20:46:08.679Z,13.60
2019-04-30T20:48:39.354Z,13.60
2019-04-30T20:51:09.167Z,13.60
2019-04-30T20:53:39.117Z,13.50
2019-04-30T20:56:09.227Z,13.40
2019-04-30T20:58:40.520Z,13.40
2019-04-30T21:01:09.625Z,13.40
2019-04-30T21:03:39.622Z,13.30
2019-04-30T21:06:08.791Z,13.30
2019-04-30T21:08:37.561Z,13.20
2019-04-30T21:11:05.985Z,13.20
2019-04-30T21:13:34.418Z,13.10
2019-04-30T21:16:02.870Z,13.10
2019-04-30T21:18:32.581Z,13.00
2019-04-30T21:21:01.190Z,13.00
2019-04-30T21:23:29.623Z,13.00
2019-04-30T21:25:58.903Z,13.00
2019-04-30T21:28:29.546Z,12.90
2019-04-30T21:30:59.496Z,12.90
2019-04-30T21:33:41.794Z,12.80
2019-04-30T21:36:11.935Z,12.80
2019-04-30T21:38:40.479Z,12.80
2019-04-30T21:41:09.959Z,12.70
2019-04-30T21:43:38.608Z,12.70
2019-04-30T21:46:09.331Z,12.60
2019-04-30T21:48:38.828Z,12.60
2019-04-30T21:51:09.224Z,12.60
2019-04-30T21:53:39.384Z,12.50
2019-04-30T21:56:07.674Z,12.50
2019-04-30T21:58:36.091Z,12.50
2019-04-30T22:01:09.539Z,12.40
2019-04-30T22:03:39.452Z,12.40
2019-04-30T22:06:08.462Z,12.30
2019-04-30T22:08:38.841Z,12.30
2019-04-30T22:11:09.600Z,12.30
2019-04-30T22:13:57.003Z,12.20
2019-04-30T22:16:25.451Z,12.20
2019-04-30T22:18:53.871Z,12.20
2019-04-30T22:21:22.387Z,12.20
2019-04-30T22:23:50.904Z,12.10
2019-04-30T22:26:19.339Z,12.10
2019-04-30T22:28:49.356Z,12.00
2019-04-30T22:31:19.756Z,12.00
2019-04-30T22:33:49.088Z,12.00
2019-04-30T22:36:21.974Z,12.00
2019-04-30T22:38:52.033Z,11.90
2019-04-30T22:41:22.212Z,11.90
2019-04-30T22:43:50.636Z,11.80
2019-04-30T22:46:19.472Z,11.80
2019-04-30T22:48:48.038Z,11.70
2019-04-30T22:51:16.468Z,11.70
2019-04-30T22:53:44.892Z,11.60
2019-04-30T22:56:16.216Z,11.50
2019-04-30T22:58:44.649Z,11.40
2019-04-30T23:01:31.201Z,11.40
2019-04-30T23:04:01.284Z,11.40
2019-04-30T23:06:29.724Z,11.30
2019-04-30T23:08:58.146Z,11.30
2019-04-30T23:11:26.641Z,11.30
2019-04-30T23:13:55.085Z,11.20
2019-04-30T23:16:23.504Z,11.20
2019-04-30T23:18:51.937Z,11.20
2019-04-30T23:21:20.365Z,11.20
2019-04-30T23:23:48.789Z,11.10
2019-04-30T23:26:17.253Z,11.00
2019-04-30T23:28:45.706Z,11.00
2019-04-30T23:31:14.131Z,11.00
2019-04-30T23:33:42.693Z,10.90
2019-04-30T23:36:11.141Z,10.90
2019-04-30T23:38:39.661Z,11.00
2019-04-30T23:41:08.106Z,10.90
2019-04-30T23:43:36.566Z,11.00
2019-04-30T23:46:05.009Z,10.90
2019-04-30T23:48:33.453Z,10.80
2019-04-30T23:51:01.901Z,10.80
2019-04-30T23:53:30.325Z,10.80
2019-04-30T23:55:58.781Z,10.80
2019-04-30T23:58:27.222Z,10.80
